Impacts METAR Board
IDs:

KHYI - San Marcos Muni, TX, US

Updated at: 0200 UTC 24 Oct 2019
Potential Impact None Slight Moderate High
Time 23/14Z 23/15Z 23/16Z 23/17Z 23/18Z 23/19Z 23/20Z 23/21Z 23/22Z 23/23Z 24/00Z 24/01Z 24/02Z
Temp60 67 75 80 82 84 87 87 85 82 78 75 74
Dewpt48 50 56 59 56 57 55 56 56 56 58 59 61
Altim30.11 30.12 30.11 30.09 30.06 30.02 29.97 29.95 29.94 29.94 29.95 29.97 29.99
VIS10 10 10 10 10 10 10 10 10 10 10 10 10
CIG-- -- -- -- -- -- -- -- -- -- -- -- --
CoverCLRCLRCLRFEWCLRCLRFEWFEWSCTCLRCLRCLRCLR
FltCatVFRVFRVFRVFRVFRVFRVFRVFRVFRVFRVFRVFRVFR
WX--------------------------
WDir3200190160180170160190160150150150140
WSpd3 4 9 16 15 19 15 15 18 14 16 13 10
WGst-- -- -- -- 24 25 20 23 23 20 20 -- --
Raw hourly METARs
KHYI 231356Z 32003KT 10SM CLR 16/09 A3011 RMK AO2 SLP192 T01560089
KHYI 231456Z VRB04KT 10SM CLR 19/10 A3012 RMK AO2 SLP195 T01940100 53008
KHYI 231556Z 19009KT 10SM CLR 24/13 A3011 RMK AO2 SLP189 T02390133
KHYI 231656Z 16016KT 10SM FEW039 27/15 A3009 RMK AO2 SLP182 T02670150
KHYI 231756Z 18015G24KT 10SM CLR 28/13 A3006 RMK AO2 SLP172 T02780133 10278 20094 58020
KHYI 231856Z 17019G25KT 10SM CLR 29/14 A3002 RMK AO2 SLP157 T02890139
KHYI 231956Z 16015G20KT 10SM FEW065 31/13 A2997 RMK AO2 PK WND 16027/1906 SLP143 T03060128
KHYI 232056Z 19015G23KT 10SM FEW065 31/13 A2995 RMK AO2 SLP134 T03060133 56038
KHYI 232156Z 16018G23KT 10SM SCT070 29/13 A2994 RMK AO2 SLP131 T02940133
KHYI 232256Z 15014G20KT 10SM CLR 28/13 A2994 RMK AO2 SLP131 T02780133
KHYI 232356Z AUTO 15016G20KT 10SM CLR 26/14 A2995 RMK AO2 SLP135 T02560144 10306 20256 55001
KHYI 240056Z AUTO 15013KT 10SM CLR 24/15 A2997 RMK AO2 SLP143 T02390150
KHYI 240156Z AUTO 14010KT 10SM CLR 23/16 A2999 RMK AO2 SLP147 T02330161